Time;durP1;ratioP1;P1;durP2;ratioP2;P2;SDS_P1;SDS_P2;PMS_P1;PMS_P2;Temp;Humidity;BMP_temperature;BMP_pressure;BME280_temperature;BME280_humidity;BME280_pressure;Samples;Min_cycle;Max_cycle;Signal;HPM_P1;HPM_P2
2023/03/12 00:00:10;;;;;;;9.75;5.75;;;;;;;-1.11;100.00;100411.25;691664;28;1936;-60
2023/03/12 00:00:30;;;;;;;10.27;5.82;;;;;;;-1.12;100.00;100412.06;691118;28;1409;-60
2023/03/12 00:00:50;;;;;;;9.40;5.67;;;;;;;-1.11;100.00;100410.38;690748;28;4301;-60
2023/03/12 00:01:14;;;;;;;9.80;5.40;;;;;;;-1.11;100.00;100411.25;694704;28;1123;-60
2023/03/12 00:01:34;;;;;;;8.73;5.35;;;;;;;-1.10;100.00;100407.84;693716;28;1338;-60
2023/03/12 00:01:55;;;;;;;9.50;5.72;;;;;;;-1.10;100.00;100410.41;693070;28;1311;-60
2023/03/12 00:02:16;;;;;;;9.80;5.82;;;;;;;-1.10;100.00;100413.00;693594;28;1207;-60
2023/03/12 00:02:36;;;;;;;8.00;5.70;;;;;;;-1.11;100.00;100411.25;696052;28;1357;-60
2023/03/12 00:02:57;;;;;;;9.38;5.97;;;;;;;-1.11;100.00;100408.69;696642;28;915;-60
2023/03/12 00:03:20;;;;;;;9.40;5.73;;;;;;;-1.07;100.00;100413.09;694548;28;1194;-60
2023/03/12 00:03:40;;;;;;;8.85;6.05;;;;;;;-1.04;100.00;100414.91;695351;28;4401;-61
2023/03/12 00:04:01;;;;;;;9.65;6.18;;;;;;;-1.05;100.00;100406.34;693869;28;1428;-60
2023/03/12 00:04:22;;;;;;;9.30;5.93;;;;;;;-1.01;100.00;100409.03;697263;28;1146;-60
2023/03/12 00:04:42;;;;;;;8.57;5.50;;;;;;;-1.03;100.00;100406.41;695508;28;1325;-60
2023/03/12 00:05:03;;;;;;;8.57;5.32;;;;;;;-1.02;100.00;100413.28;695506;28;1306;-60
2023/03/12 00:05:24;;;;;;;8.65;5.35;;;;;;;-1.04;100.00;100408.09;695480;28;1444;-60
2023/03/12 00:05:45;;;;;;;8.95;5.70;;;;;;;-1.04;100.00;100407.22;692834;28;2512;-59
2023/03/12 00:06:06;;;;;;;9.70;5.70;;;;;;;-1.05;100.00;100416.63;695652;28;1092;-59
2023/03/12 00:06:26;;;;;;;10.07;5.47;;;;;;;-1.05;100.00;100414.03;697171;28;1249;-60
2023/03/12 00:06:50;;;;;;;9.10;5.60;;;;;;;-1.05;100.00;100413.19;694237;28;4613;-59
2023/03/12 00:07:14;;;;;;;8.30;5.43;;;;;;;-1.07;100.00;100405.41;694206;28;1069;-60
2023/03/12 00:07:35;;;;;;;8.52;5.57;;;;;;;-1.07;100.00;100410.53;692944;28;1295;-60
2023/03/12 00:07:58;;;;;;;8.30;5.30;;;;;;;-1.04;100.00;100410.66;693580;28;1164;-60
2023/03/12 00:08:19;;;;;;;7.97;5.00;;;;;;;-1.03;100.00;100411.53;696369;28;1099;-59
2023/03/12 00:08:41;;;;;;;8.70;5.40;;;;;;;-1.03;100.00;100408.97;695359;28;1285;-60
2023/03/12 00:09:03;;;;;;;9.87;5.70;;;;;;;-1.04;100.00;100408.09;697182;28;1273;-60
2023/03/12 00:09:24;;;;;;;8.93;5.55;;;;;;;-1.04;100.00;100408.09;694522;28;1838;-60
2023/03/12 00:09:44;;;;;;;8.63;5.40;;;;;;;-1.03;100.00;100406.41;695204;28;4394;-60
2023/03/12 00:10:05;;;;;;;8.73;5.53;;;;;;;-1.01;100.00;100416.72;694154;28;1056;-60
2023/03/12 00:10:26;;;;;;;7.68;5.32;;;;;;;-1.01;100.00;100416.72;695272;28;1289;-60
2023/03/12 00:10:46;;;;;;;10.07;5.35;;;;;;;-0.99;100.00;100409.97;699250;28;1369;-59
2023/03/12 00:11:09;;;;;;;8.38;5.07;;;;;;;-1.00;100.00;100413.34;697622;28;1902;-60
2023/03/12 00:11:30;;;;;;;9.20;5.30;;;;;;;-0.94;100.00;100411.91;700785;28;1443;-60
2023/03/12 00:11:51;;;;;;;7.85;4.97;;;;;;;-0.87;100.00;100407.88;696412;28;1415;-60
2023/03/12 00:12:11;;;;;;;8.00;4.97;;;;;;;-0.89;100.00;100401.78;696625;28;1230;-60
2023/03/12 00:12:32;;;;;;;8.75;5.22;;;;;;;-0.88;100.00;100413.81;696676;28;1383;-60
2023/03/12 00:12:55;;;;;;;9.87;5.10;;;;;;;-0.89;100.00;100412.06;696183;28;4510;-60
2023/03/12 00:13:16;;;;;;;8.38;5.10;;;;;;;-0.90;100.00;100407.72;695465;28;1159;-60
2023/03/12 00:13:36;;;;;;;7.80;5.07;;;;;;;-0.91;100.00;100403.44;696608;28;1306;-59
2023/03/12 00:13:59;;;;;;;7.30;5.00;;;;;;;-0.93;100.00;100408.53;696663;28;1309;-60
2023/03/12 00:14:22;;;;;;;7.78;4.85;;;;;;;-0.89;100.00;100400.13;696888;28;1277;-60
2023/03/12 00:14:43;;;;;;;7.30;4.70;;;;;;;-0.88;100.00;100404.41;697775;28;1195;-59
2023/03/12 00:15:04;;;;;;;7.55;4.50;;;;;;;-0.89;100.00;100396.66;698696;28;1460;-66
2023/03/12 00:15:26;;;;;;;8.20;4.55;;;;;;;-0.87;100.00;100403.59;697827;28;1453;-59
2023/03/12 00:15:46;;;;;;;6.95;4.75;;;;;;;-0.86;100.00;100396.75;695292;28;4496;-60
2023/03/12 00:16:12;;;;;;;7.47;5.17;;;;;;;-0.85;100.00;100398.53;695434;28;1298;-60
2023/03/12 00:16:32;;;;;;;7.70;4.65;;;;;;;-0.86;100.00;100396.75;696402;28;1361;-60
2023/03/12 00:16:54;;;;;;;8.25;4.93;;;;;;;-0.87;100.00;100397.59;697464;28;1287;-60
2023/03/12 00:17:15;;;;;;;8.10;5.03;;;;;;;-0.88;100.00;100404.41;697649;28;1204;-59
2023/03/12 00:17:35;;;;;;;8.53;5.10;;;;;;;-0.89;100.00;100405.25;698771;28;1353;-60
2023/03/12 00:17:56;;;;;;;6.90;4.60;;;;;;;-0.85;100.00;100398.53;700228;28;1115;-60
2023/03/12 00:18:16;;;;;;;6.73;4.70;;;;;;;-0.84;100.00;100402.84;699031;28;1130;-60
2023/03/12 00:18:40;;;;;;;6.70;4.70;;;;;;;-0.84;100.00;100399.38;700163;28;1530;-59
2023/03/12 00:19:00;;;;;;;8.20;5.18;;;;;;;-0.84;100.00;100396.81;699783;28;5133;-59
2023/03/12 00:19:21;;;;;;;7.50;5.23;;;;;;;-0.84;100.00;100400.28;696895;28;1257;-60
2023/03/12 00:19:41;;;;;;;7.13;4.90;;;;;;;-0.86;100.00;100397.66;695223;28;1314;-60
2023/03/12 00:20:04;;;;;;;8.77;5.03;;;;;;;-0.84;100.00;100401.94;694564;28;3506;-61
2023/03/12 00:20:25;;;;;;;7.13;4.72;;;;;;;-0.83;100.00;100399.47;692108;28;1340;-60
2023/03/12 00:20:52;;;;;;;7.82;5.10;;;;;;;-0.84;100.00;100401.94;692088;28;1449;-60
2023/03/12 00:21:13;;;;;;;8.40;4.75;;;;;;;-0.86;100.00;100395.09;692499;28;1171;-59
2023/03/12 00:21:34;;;;;;;7.88;4.50;;;;;;;-0.84;100.00;100402.84;696700;28;1453;-60
2023/03/12 00:21:54;;;;;;;7.17;4.20;;;;;;;-0.86;100.00;100397.66;698095;28;4446;-60
2023/03/12 00:22:15;;;;;;;8.90;4.50;;;;;;;-0.84;100.00;100407.97;695704;28;1242;-60
2023/03/12 00:22:36;;;;;;;7.45;4.50;;;;;;;-0.81;100.00;100407.22;691609;28;1417;-60
2023/03/12 00:22:56;;;;;;;7.22;4.65;;;;;;;-0.81;100.00;100400.38;691586;28;1159;-60
2023/03/12 00:23:17;;;;;;;7.23;4.57;;;;;;;-0.83;100.00;100402.03;691651;28;1156;-60
2023/03/12 00:23:37;;;;;;;7.07;4.65;;;;;;;-0.81;100.00;100407.22;686935;28;1400;-60
2023/03/12 00:23:58;;;;;;;6.93;4.43;;;;;;;-0.82;100.00;100401.19;687706;28;1362;-60
2023/03/12 00:24:18;;;;;;;8.13;4.30;;;;;;;-0.81;100.00;100399.53;690467;28;1159;-60
2023/03/12 00:24:38;;;;;;;7.70;4.23;;;;;;;-0.80;100.00;100404.72;690549;28;4328;-60
2023/03/12 00:24:59;;;;;;;8.80;4.68;;;;;;;-0.81;100.00;100405.53;689268;28;1377;-60
2023/03/12 00:25:20;;;;;;;9.10;4.70;;;;;;;-0.80;100.00;100399.56;687694;28;1756;-60
2023/03/12 00:25:40;;;;;;;8.07;4.57;;;;;;;-0.81;100.00;100399.53;686738;28;1409;-61
2023/03/12 00:26:03;;;;;;;7.70;4.73;;;;;;;-0.75;100.00;100399.72;683848;28;1153;-60
2023/03/12 00:26:23;;;;;;;9.73;5.28;;;;;;;-0.69;100.00;100398.28;686893;28;1165;-59
2023/03/12 00:26:44;;;;;;;8.50;4.10;;;;;;;-0.69;100.00;100400.84;689098;28;1441;-60
2023/03/12 00:27:05;;;;;;;7.20;4.10;;;;;;;-0.67;100.00;100398.31;688225;28;1386;-60
2023/03/12 00:27:26;;;;;;;7.15;4.40;;;;;;;-0.66;100.00;100396.66;687966;28;1331;-59
2023/03/12 00:27:50;;;;;;;7.50;4.47;;;;;;;-0.64;100.00;100393.28;689143;28;4269;-60
2023/03/12 00:28:10;;;;;;;7.37;4.50;;;;;;;-0.68;100.00;100396.56;690601;28;1505;-60
2023/03/12 00:28:32;;;;;;;7.37;4.30;;;;;;;-0.68;100.00;100391.44;691700;28;1424;-59
2023/03/12 00:28:52;;;;;;;7.40;4.20;;;;;;;-0.70;100.00;100404.22;696730;28;1345;-59
2023/03/12 00:29:13;;;;;;;8.17;4.47;;;;;;;-0.70;100.00;100399.09;693616;28;1670;-60
2023/03/12 00:29:34;;;;;;;9.10;4.40;;;;;;;-0.72;100.00;100395.59;696487;28;1424;-60
2023/03/12 00:29:55;;;;;;;8.32;4.35;;;;;;;-0.67;100.00;100392.31;696045;28;1159;-59
2023/03/12 00:30:15;;;;;;;9.10;4.30;;;;;;;-0.69;100.00;100405.13;695629;28;1155;-60
2023/03/12 00:30:35;;;;;;;10.27;4.68;;;;;;;-0.69;100.00;100398.28;697706;28;1340;-60
2023/03/12 00:30:57;;;;;;;7.63;4.10;;;;;;;-0.63;100.00;100394.19;691852;28;4285;-60
2023/03/12 00:31:26;;;;;;;8.23;4.13;;;;;;;-0.63;100.00;100396.75;692236;28;2009;-60
2023/03/12 00:31:46;;;;;;;7.00;4.30;;;;;;;-0.65;100.00;100394.13;694238;28;1292;-60
2023/03/12 00:32:07;;;;;;;6.27;4.23;;;;;;;-0.60;100.00;100391.72;695917;28;1313;-60
2023/03/12 00:32:28;;;;;;;6.90;4.10;;;;;;;-0.61;100.00;100397.66;695887;28;1523;-60
2023/03/12 00:32:48;;;;;;;6.78;4.13;;;;;;;-0.63;100.00;100395.06;698556;28;1462;-60
2023/03/12 00:33:10;;;;;;;7.23;4.10;;;;;;;-0.65;100.00;100394.13;699528;28;1320;-60
2023/03/12 00:33:33;;;;;;;7.00;4.13;;;;;;;-0.64;100.00;100397.56;699651;28;1305;-60
2023/03/12 00:33:55;;;;;;;6.95;4.22;;;;;;;-0.66;100.00;100394.94;694854;28;4348;-60
2023/03/12 00:34:17;;;;;;;7.38;4.07;;;;;;;-0.64;100.00;100395.00;694142;28;1120;-60
2023/03/12 00:34:38;;;;;;;6.88;4.28;;;;;;;-0.65;100.00;100395.81;693520;28;1341;-59
2023/03/12 00:34:58;;;;;;;5.73;4.03;;;;;;;-0.64;100.00;100388.16;690245;28;1145;-60
2023/03/12 00:35:19;;;;;;;6.97;4.07;;;;;;;-0.64;100.00;100392.44;688093;28;1141;-60
2023/03/12 00:35:39;;;;;;;8.25;4.20;;;;;;;-0.62;100.00;100398.47;686355;28;1241;-60
2023/03/12 00:36:00;;;;;;;7.73;4.53;;;;;;;-0.63;100.00;100395.06;689349;28;1113;-60
2023/03/12 00:36:24;;;;;;;8.73;4.25;;;;;;;-0.59;100.00;100388.34;692736;28;1244;-60
2023/03/12 00:36:45;;;;;;;7.97;4.25;;;;;;;-0.56;100.00;100391.00;691578;28;4935;-60
2023/03/12 00:37:06;;;;;;;6.80;4.20;;;;;;;-0.52;100.00;100388.59;695854;28;1353;-60
2023/03/12 00:37:27;;;;;;;7.55;4.05;;;;;;;-0.51;100.00;100384.34;696106;28;1421;-60
2023/03/12 00:37:48;;;;;;;8.07;4.28;;;;;;;-0.49;100.00;100392.13;695993;28;1266;-60
2023/03/12 00:38:08;;;;;;;7.25;4.00;;;;;;;-0.53;100.00;100393.69;693553;28;1515;-60
2023/03/12 00:38:29;;;;;;;7.07;3.92;;;;;;;-0.46;100.00;100392.22;690572;28;1440;-60
2023/03/12 00:38:51;;;;;;;7.22;3.95;;;;;;;-0.46;100.00;100394.78;689913;28;5646;-60
2023/03/12 00:39:12;;;;;;;6.32;3.80;;;;;;;-0.48;100.00;100389.59;689686;28;1388;-60
2023/03/12 00:39:33;;;;;;;6.32;3.90;;;;;;;-0.49;100.00;100389.53;690580;28;1413;-60
2023/03/12 00:39:54;;;;;;;6.85;4.00;;;;;;;-0.52;100.00;100388.59;691095;28;4365;-59
2023/03/12 00:40:14;;;;;;;6.72;4.00;;;;;;;-0.50;100.00;100383.50;693498;28;1238;-60
2023/03/12 00:40:35;;;;;;;8.55;4.20;;;;;;;-0.48;100.00;100387.03;693908;28;1326;-59
2023/03/12 00:40:55;;;;;;;7.97;4.20;;;;;;;-0.34;100.00;100382.38;694202;28;1444;-60
2023/03/12 00:41:18;;;;;;;8.03;4.03;;;;;;;-0.31;100.00;100384.19;696249;28;1209;-59
2023/03/12 00:41:39;;;;;;;7.93;3.92;;;;;;;-0.30;100.00;100384.22;697403;28;1393;-60
2023/03/12 00:42:00;;;;;;;7.25;3.90;;;;;;;-0.27;100.00;100388.59;690599;28;1425;-59
2023/03/12 00:42:20;;;;;;;7.72;4.05;;;;;;;-0.25;100.00;100386.94;692009;28;1255;-60
2023/03/12 00:42:41;;;;;;;8.07;4.00;;;;;;;-0.26;100.00;100380.94;690809;28;4337;-60
2023/03/12 00:43:02;;;;;;;7.97;4.00;;;;;;;-0.14;100.00;100383.03;688762;28;1433;-59
2023/03/12 00:43:22;;;;;;;7.53;4.10;;;;;;;-0.11;100.00;100387.41;688601;28;1339;-59
2023/03/12 00:43:42;;;;;;;7.90;4.00;;;;;;;-0.14;100.00;100383.03;693513;28;1357;-59
2023/03/12 00:44:05;;;;;;;7.38;4.25;;;;;;;-0.16;100.00;100377.00;696670;28;1404;-60
2023/03/12 00:44:26;;;;;;;6.53;4.03;;;;;;;-0.14;100.00;100382.19;691502;28;1402;-60
2023/03/12 00:44:46;;;;;;;6.70;4.07;;;;;;;-0.08;100.00;100380.69;690128;28;1512;-60
2023/03/12 00:45:10;;;;;;;6.65;4.30;;;;;;;-0.11;100.00;100385.75;691179;28;1410;-60
2023/03/12 00:45:30;;;;;;;6.95;4.13;;;;;;;-0.17;100.00;100388.09;692907;28;1349;-58
2023/03/12 00:45:50;;;;;;;6.33;4.50;;;;;;;-0.14;100.00;100380.47;692057;28;4314;-59
2023/03/12 00:46:11;;;;;;;7.63;4.27;;;;;;;-0.14;100.00;100375.34;693794;28;1109;-59
2023/03/12 00:46:32;;;;;;;8.32;3.95;;;;;;;-0.14;100.00;100382.19;699003;28;1197;-58
2023/03/12 00:46:52;;;;;;;7.88;4.10;;;;;;;-0.16;100.00;100383.84;698104;28;1334;-58
2023/03/12 00:47:13;;;;;;;7.23;3.90;;;;;;;-0.20;100.00;100390.56;694265;28;1377;-58
2023/03/12 00:47:33;;;;;;;6.43;3.80;;;;;;;-0.19;100.00;100376.91;690566;28;1463;-58
2023/03/12 00:47:54;;;;;;;6.80;3.95;;;;;;;-0.19;100.00;100379.47;689215;28;1437;-58
2023/03/12 00:48:14;;;;;;;8.97;4.27;;;;;;;-0.21;100.00;100375.97;688005;28;1251;-59
2023/03/12 00:48:35;;;;;;;7.35;4.15;;;;;;;-0.23;100.00;100385.31;685087;28;1228;-59
2023/03/12 00:48:55;;;;;;;6.80;4.00;;;;;;;-0.19;100.00;100377.75;688627;28;4327;-59
2023/03/12 00:49:16;;;;;;;6.73;3.97;;;;;;;-0.18;100.00;100376.06;691036;28;1178;-59
2023/03/12 00:49:36;;;;;;;6.93;4.00;;;;;;;-0.08;100.00;100373.00;694812;28;1151;-58
2023/03/12 00:49:57;;;;;;;7.40;4.20;;;;;;;-0.12;100.00;100378.84;696425;28;1368;-58
2023/03/12 00:50:17;;;;;;;7.60;4.10;;;;;;;-0.14;100.00;100380.47;696152;28;1202;-58
2023/03/12 00:50:38;;;;;;;7.17;4.17;;;;;;;-0.11;100.00;100385.75;695125;28;1272;-58
2023/03/12 00:50:58;;;;;;;6.53;4.30;;;;;;;-0.15;100.00;100372.72;693154;28;1261;-59
2023/03/12 00:51:19;;;;;;;7.13;4.30;;;;;;;-0.15;100.00;100373.63;692939;28;1910;-59
2023/03/12 00:51:39;;;;;;;6.80;4.00;;;;;;;-0.13;100.00;100369.38;693051;28;4291;-58
2023/03/12 00:52:00;;;;;;;7.30;4.10;;;;;;;-0.16;100.00;100371.84;695508;28;1242;-58
2023/03/12 00:52:20;;;;;;;6.60;3.87;;;;;;;-0.18;100.00;100378.63;692802;28;1290;-61
2023/03/12 00:52:41;;;;;;;7.80;4.03;;;;;;;-0.19;100.00;100369.19;692922;28;1298;-58
2023/03/12 00:53:01;;;;;;;7.15;3.97;;;;;;;-0.19;100.00;100372.63;691943;28;1372;-58
2023/03/12 00:53:22;;;;;;;6.47;4.13;;;;;;;-0.16;100.00;100371.00;692171;28;1282;-58
2023/03/12 00:53:42;;;;;;;7.10;4.17;;;;;;;-0.15;100.00;100378.75;691535;28;1397;-58
2023/03/12 00:54:03;;;;;;;8.50;3.95;;;;;;;-0.15;100.00;100372.72;691163;28;1247;-59
2023/03/12 00:54:24;;;;;;;7.00;3.90;;;;;;;-0.05;100.00;100367.09;691726;28;1145;-58
2023/03/12 00:54:44;;;;;;;7.25;4.25;;;;;;;0.00;100.00;100378.41;690909;28;4356;-59
2023/03/12 00:55:05;;;;;;;9.23;4.27;;;;;;;0.04;100.00;100376.78;692535;28;1364;-59
2023/03/12 00:55:26;;;;;;;8.02;3.88;;;;;;;0.05;100.00;100371.69;695284;28;1500;-58
2023/03/12 00:55:46;;;;;;;7.45;4.10;;;;;;;-0.02;100.00;100370.63;690238;28;1266;-59
2023/03/12 00:56:07;;;;;;;7.50;4.30;;;;;;;-0.04;100.00;100368.84;690051;28;1307;-59
2023/03/12 00:56:28;;;;;;;7.82;4.18;;;;;;;-0.05;100.00;100375.66;694411;28;1267;-59
2023/03/12 00:56:48;;;;;;;8.63;4.20;;;;;;;-0.04;100.00;100377.41;693567;28;1480;-59
2023/03/12 00:57:09;;;;;;;6.93;3.88;;;;;;;0.06;100.00;100368.31;692767;28;1310;-58
2023/03/12 00:57:30;;;;;;;7.45;4.05;;;;;;;0.02;100.00;100370.75;695795;28;1994;-58
2023/03/12 00:57:50;;;;;;;7.60;4.17;;;;;;;0.04;100.00;100371.66;698915;28;4320;-58
2023/03/12 00:58:11;;;;;;;6.77;4.10;;;;;;;0.06;100.00;100367.44;695851;28;1558;-58
2023/03/12 00:58:32;;;;;;;7.85;4.07;;;;;;;0.03;100.00;100369.91;694247;28;1210;-58
2023/03/12 00:58:52;;;;;;;7.30;3.73;;;;;;;-0.01;100.00;100368.94;695205;28;1206;-58
2023/03/12 00:59:14;;;;;;;7.65;3.83;;;;;;;-0.04;100.00;100372.28;691095;28;1460;-58
2023/03/12 00:59:34;;;;;;;6.72;3.83;;;;;;;-0.06;100.00;100373.91;692869;28;1489;-58
2023/03/12 00:59:55;;;;;;;6.83;3.70;;;;;;;0.02;100.00;100371.59;690146;28;1286;-58
2023/03/12 01:00:18;;;;;;;8.00;3.90;;;;;;;0.04;100.00;100369.06;691306;28;1180;-58
2023/03/12 01:00:38;;;;;;;6.60;4.07;;;;;;;0.02;100.00;100375.88;693929;28;4405;-59
2023/03/12 01:00:58;;;;;;;8.03;4.17;;;;;;;0.01;100.00;100369.84;693669;28;1219;-59
2023/03/12 01:01:19;;;;;;;8.70;4.13;;;;;;;-0.03;100.00;100368.88;694079;28;1174;-58
2023/03/12 01:01:41;;;;;;;8.77;4.07;;;;;;;-0.03;100.00;100373.13;691335;28;1310;-58
2023/03/12 01:02:04;;;;;;;6.97;3.85;;;;;;;-0.04;100.00;100371.41;695902;28;1321;-58
2023/03/12 01:02:24;;;;;;;6.40;4.00;;;;;;;-0.05;100.00;100365.38;693749;28;1376;-58
2023/03/12 01:02:48;;;;;;;7.00;3.93;;;;;;;0.00;100.00;100370.69;691542;28;1270;-59
2023/03/12 01:03:08;;;;;;;7.65;4.00;;;;;;;0.04;100.00;100369.94;690227;28;1500;-58
2023/03/12 01:03:29;;;;;;;6.43;3.63;;;;;;;0.24;100.00;100377.47;690923;28;1384;-59
2023/03/12 01:03:53;;;;;;;6.57;3.63;;;;;;;0.13;100.00;100370.25;690373;28;4299;-58
2023/03/12 01:04:16;;;;;;;6.18;3.60;;;;;;;0.25;100.00;100363.75;686607;28;1278;-58
2023/03/12 01:04:37;;;;;;;6.53;3.63;;;;;;;0.19;100.00;100364.44;686631;28;1351;-58
2023/03/12 01:04:58;;;;;;;7.90;3.63;;;;;;;0.13;100.00;100362.53;695459;28;1200;-58
2023/03/12 01:05:19;;;;;;;7.93;3.72;;;;;;;0.10;100.00;100369.31;697660;28;1336;-58
2023/03/12 01:05:40;;;;;;;7.22;3.80;;;;;;;0.08;100.00;100369.22;693255;28;1452;-58
2023/03/12 01:06:01;;;;;;;8.23;3.80;;;;;;;0.07;100.00;100366.59;690970;28;1519;-59
2023/03/12 01:06:24;;;;;;;7.03;3.70;;;;;;;0.06;100.00;100370.03;688438;28;1259;-59
2023/03/12 01:06:47;;;;;;;6.72;3.90;;;;;;;0.05;100.00;100373.41;688288;28;4777;-59
2023/03/12 01:07:07;;;;;;;7.57;4.03;;;;;;;0.05;100.00;100374.28;690589;28;1399;-59
2023/03/12 01:07:28;;;;;;;6.80;3.70;;;;;;;0.04;100.00;100369.06;689506;28;1334;-59
2023/03/12 01:07:48;;;;;;;6.90;3.80;;;;;;;0.02;100.00;100370.75;690982;28;1377;-59
2023/03/12 01:08:10;;;;;;;6.97;3.80;;;;;;;0.11;100.00;100368.44;695232;28;1500;-59
2023/03/12 01:08:30;;;;;;;8.40;4.00;;;;;;;0.20;100.00;100375.63;694095;28;1396;-59
2023/03/12 01:08:51;;;;;;;7.32;3.72;;;;;;;0.20;100.00;100366.19;690483;28;1396;-59
2023/03/12 01:09:12;;;;;;;5.82;3.60;;;;;;;0.17;100.00;100366.97;686860;28;1374;-59
2023/03/12 01:09:32;;;;;;;7.78;3.53;;;;;;;0.14;100.00;100366.00;691033;28;1476;-59
2023/03/12 01:09:52;;;;;;;7.73;3.63;;;;;;;0.11;100.00;100369.34;690431;28;4751;-59
2023/03/12 01:10:15;;;;;;;6.47;3.60;;;;;;;0.16;100.00;100369.47;687477;28;1338;-59
2023/03/12 01:10:39;;;;;;;6.63;3.40;;;;;;;0.14;100.00;100360.88;690101;28;1465;-59
2023/03/12 01:11:00;;;;;;;6.75;3.50;;;;;;;0.13;100.00;100371.97;690277;28;1378;-58
2023/03/12 01:11:20;;;;;;;7.03;3.50;;;;;;;0.10;100.00;100369.31;688372;28;1969;-58
2023/03/12 01:11:41;;;;;;;7.88;3.47;;;;;;;0.09;100.00;100367.53;689068;28;1339;-59
2023/03/12 01:12:01;;;;;;;8.10;3.50;;;;;;;0.09;100.00;100367.53;689486;28;1227;-59
2023/03/12 01:12:22;;;;;;;6.88;3.50;;;;;;;0.08;100.00;100363.22;690179;28;1452;-58
2023/03/12 01:12:43;;;;;;;7.03;3.72;;;;;;;0.10;100.00;100375.31;686484;28;4374;-59
2023/03/12 01:13:03;;;;;;;7.90;4.20;;;;;;;0.09;100.00;100367.53;686740;28;1028;-59
2023/03/12 01:13:24;;;;;;;6.60;3.63;;;;;;;0.14;100.00;100374.56;688633;28;1441;-58
2023/03/12 01:13:45;;;;;;;6.93;3.50;;;;;;;0.12;100.00;100370.22;687960;28;1244;-59
2023/03/12 01:14:07;;;;;;;7.68;3.55;;;;;;;0.11;100.00;100368.44;687143;28;1242;-58
2023/03/12 01:14:27;;;;;;;7.55;3.58;;;;;;;0.11;100.00;100371.03;688071;28;1357;-59
2023/03/12 01:14:47;;;;;;;6.20;3.40;;;;;;;0.10;100.00;100366.72;686973;28;1331;-59
2023/03/12 01:15:11;;;;;;;8.05;3.53;;;;;;;0.09;100.00;100367.53;685483;28;1315;-59
2023/03/12 01:15:32;;;;;;;6.18;3.38;;;;;;;0.05;100.00;100366.56;686670;28;1156;-58
2023/03/12 01:15:52;;;;;;;6.80;3.70;;;;;;;0.06;100.00;100359.75;689333;28;4455;-59
2023/03/12 01:16:13;;;;;;;7.75;3.92;;;;;;;0.08;100.00;100360.66;691451;28;1159;-58
2023/03/12 01:16:34;;;;;;;9.02;3.60;;;;;;;0.08;100.00;100360.66;691702;28;3457;-58
2023/03/12 01:16:54;;;;;;;7.20;3.77;;;;;;;0.16;100.00;100357.50;694632;28;1304;-59
2023/03/12 01:17:15;;;;;;;6.72;3.58;;;;;;;0.20;100.00;100353.34;695937;28;1151;-58
2023/03/12 01:17:38;;;;;;;6.75;3.60;;;;;;;0.25;100.00;100359.50;697016;28;1201;-58
2023/03/12 01:17:58;;;;;;;7.45;3.80;;;;;;;0.22;100.00;100361.97;694080;28;1383;-59
2023/03/12 01:18:19;;;;;;;7.23;3.87;;;;;;;0.19;100.00;100358.44;688318;28;1341;-59
2023/03/12 01:18:40;;;;;;;7.93;4.00;;;;;;;0.17;100.00;100366.97;682609;28;4362;-58
2023/03/12 01:19:02;;;;;;;6.75;3.50;;;;;;;0.17;100.00;100371.25;686735;28;1981;-58
2023/03/12 01:19:23;;;;;;;7.25;3.58;;;;;;;0.14;100.00;100364.28;690172;28;1502;-59
2023/03/12 01:19:46;;;;;;;9.07;4.13;;;;;;;0.14;100.00;100360.88;690182;28;1140;-59
2023/03/12 01:20:07;;;;;;;8.10;3.58;;;;;;;0.10;100.00;100359.00;685494;28;1239;-58
2023/03/12 01:20:28;;;;;;;7.35;3.40;;;;;;;0.15;100.00;100362.59;686070;28;1342;-58
2023/03/12 01:20:48;;;;;;;7.22;3.50;;;;;;;0.16;100.00;100359.19;686354;28;1338;-59
2023/03/12 01:21:12;;;;;;;6.75;3.78;;;;;;;0.17;100.00;100355.81;693206;28;1318;-59
2023/03/12 01:21:32;;;;;;;7.55;4.15;;;;;;;0.19;100.00;100355.84;693172;28;1202;-59
2023/03/12 01:21:53;;;;;;;6.17;3.60;;;;;;;0.16;100.00;100362.63;687783;28;4668;-59
2023/03/12 01:22:16;;;;;;;8.30;3.90;;;;;;;0.21;100.00;100362.81;690904;28;1184;-59
2023/03/12 01:22:37;;;;;;;9.10;3.95;;;;;;;0.17;100.00;100366.09;688329;28;1590;-59
2023/03/12 01:22:57;;;;;;;7.78;3.78;;;;;;;0.19;100.00;100366.16;685168;28;1442;-59
2023/03/12 01:23:18;;;;;;;6.63;3.50;;;;;;;0.17;100.00;100360.97;683402;28;1449;-59
2023/03/12 01:23:38;;;;;;;6.78;3.40;;;;;;;0.19;100.00;100372.16;684670;28;1232;-59
2023/03/12 01:23:59;;;;;;;6.10;3.50;;;;;;;0.23;100.00;100358.56;686973;28;1217;-59
2023/03/12 01:24:22;;;;;;;7.15;3.60;;;;;;;0.34;100.00;100362.34;686828;28;1243;-58
2023/03/12 01:24:42;;;;;;;7.27;3.67;;;;;;;0.35;100.00;100355.53;689415;28;5090;-59
2023/03/12 01:25:03;;;;;;;5.57;3.17;;;;;;;0.37;100.00;100356.44;687178;28;1270;-59
2023/03/12 01:25:24;;;;;;;5.97;3.30;;;;;;;0.34;100.00;100361.50;687700;28;1184;-59
2023/03/12 01:25:46;;;;;;;6.38;3.30;;;;;;;0.32;100.00;100364.00;688171;28;1235;-58
2023/03/12 01:26:06;;;;;;;6.45;3.30;;;;;;;0.29;100.00;100357.88;688600;28;1089;-59
2023/03/12 01:26:26;;;;;;;6.25;3.42;;;;;;;0.28;100.00;100354.47;691759;28;1140;-59
2023/03/12 01:26:47;;;;;;;5.10;3.40;;;;;;;0.27;100.00;100355.28;689131;28;1326;-58
2023/03/12 01:27:08;;;;;;;7.65;3.58;;;;;;;0.30;100.00;100350.22;691768;28;1278;-59
2023/03/12 01:27:29;;;;;;;7.47;3.50;;;;;;;0.43;100.00;100361.78;690902;28;1367;-59
2023/03/12 01:27:49;;;;;;;5.88;3.40;;;;;;;0.47;100.00;100355.91;689798;28;4387;-59
2023/03/12 01:28:10;;;;;;;6.13;3.50;;;;;;;0.39;100.00;100356.47;689034;28;1215;-59
2023/03/12 01:28:30;;;;;;;6.75;3.63;;;;;;;0.37;100.00;100350.44;688828;28;1374;-58
2023/03/12 01:28:50;;;;;;;6.80;3.63;;;;;;;0.32;100.00;100351.16;688184;28;1315;-58
2023/03/12 01:29:14;;;;;;;6.25;3.50;;;;;;;0.30;100.00;100352.78;687459;28;1275;-59
2023/03/12 01:29:34;;;;;;;6.50;3.20;;;;;;;0.31;100.00;100357.13;688964;28;1318;-59
2023/03/12 01:29:55;;;;;;;5.93;3.42;;;;;;;0.33;100.00;100350.34;693276;28;1447;-59
2023/03/12 01:30:16;;;;;;;5.47;3.28;;;;;;;0.38;100.00;100354.75;693226;28;1211;-59
2023/03/12 01:30:36;;;;;;;8.50;3.50;;;;;;;0.36;100.00;100346.09;692961;28;1216;-58
2023/03/12 01:30:57;;;;;;;7.45;3.65;;;;;;;0.47;100.00;100358.50;693136;28;4282;-59
2023/03/12 01:31:18;;;;;;;7.47;3.42;;;;;;;0.49;100.00;100348.25;693909;28;1914;-59
2023/03/12 01:31:42;;;;;;;7.30;3.10;;;;;;;0.44;100.00;100347.22;692437;28;1636;-59
2023/03/12 01:32:02;;;;;;;6.43;3.40;;;;;;;0.43;100.00;100348.03;689533;28;1449;-59
2023/03/12 01:32:26;;;;;;;7.00;3.50;;;;;;;0.45;100.00;100351.53;689688;28;1151;-59
2023/03/12 01:32:46;;;;;;;7.18;3.15;;;;;;;0.43;100.00;100343.78;688284;28;1286;-59
2023/03/12 01:33:07;;;;;;;6.10;3.30;;;;;;;0.40;100.00;100347.94;686377;28;1290;-59
2023/03/12 01:33:27;;;;;;;7.23;3.70;;;;;;;0.38;100.00;100354.75;686544;28;1521;-59
2023/03/12 01:33:50;;;;;;;8.18;3.85;;;;;;;0.36;100.00;100346.09;689226;28;4497;-59
2023/03/12 01:34:11;;;;;;;6.95;3.42;;;;;;;0.38;100.00;100339.34;687166;28;1330;-59
2023/03/12 01:34:34;;;;;;;7.28;3.50;;;;;;;0.36;100.00;100341.84;685842;28;1319;-59
2023/03/12 01:34:54;;;;;;;9.05;3.40;;;;;;;0.49;100.00;100338.81;685853;28;1300;-59
2023/03/12 01:35:15;;;;;;;8.27;3.40;;;;;;;0.56;100.00;100337.31;688018;28;1259;-59
2023/03/12 01:35:38;;;;;;;6.32;3.53;;;;;;;0.52;100.00;100343.19;691581;28;1512;-59
2023/03/12 01:35:58;;;;;;;7.18;3.53;;;;;;;0.49;100.00;100345.69;689488;28;1186;-60
2023/03/12 01:36:22;;;;;;;7.78;3.42;;;;;;;0.42;100.00;100346.31;689566;28;1235;-60
2023/03/12 01:36:43;;;;;;;7.10;3.15;;;;;;;0.39;100.00;100341.06;692879;28;4458;-59
2023/03/12 01:37:05;;;;;;;7.18;3.40;;;;;;;0.35;100.00;100350.38;691992;28;1259;-59
2023/03/12 01:37:27;;;;;;;6.20;3.38;;;;;;;0.39;100.00;100347.09;687577;28;1345;-59
2023/03/12 01:37:47;;;;;;;6.18;3.33;;;;;;;0.42;100.00;100346.31;692785;28;1286;-60
2023/03/12 01:38:13;;;;;;;6.38;3.28;;;;;;;0.40;100.00;100342.81;693719;28;1230;-60
2023/03/12 01:38:34;;;;;;;6.47;3.30;;;;;;;0.39;100.00;100341.94;690487;28;1274;-59
2023/03/12 01:38:57;;;;;;;6.07;3.20;;;;;;;0.36;100.00;100341.84;691264;28;5187;-60
2023/03/12 01:39:17;;;;;;;7.65;3.50;;;;;;;0.33;100.00;100334.91;690641;28;1230;-59
2023/03/12 01:39:38;;;;;;;7.93;3.30;;;;;;;0.32;100.00;100340.00;691299;28;1288;-60
2023/03/12 01:39:59;;;;;;;7.22;3.20;;;;;;;0.29;100.00;100345.94;689355;28;4478;-60